Time;durP1;ratioP1;P1;durP2;ratioP2;P2;SDS_P1;SDS_P2;PMS_P1;PMS_P2;Temp;Humidity;BMP_temperature;BMP_pressure;BME280_temperature;BME280_humidity;BME280_pressure;Samples;Min_cycle;Max_cycle;Signal;HPM_P1;HPM_P2
2022/08/01 00:00:12;;;;;;;12.80;12.40;;;24.20;15.90;;;;;;6218405;23;20178;-82
2022/08/01 00:02:38;;;;;;;13.10;12.60;;;24.20;15.90;;;;;;6192096;23;20163;-82
2022/08/01 00:05:08;;;;;;;13.70;13.20;;;24.20;15.90;;;;;;6218255;23;20383;-82
2022/08/01 00:07:34;;;;;;;13.20;12.70;;;24.10;15.90;;;;;;6218285;23;20913;-82
2022/08/01 00:10:00;;;;;;;12.73;12.23;;;24.10;16.00;;;;;;6191081;23;20429;-81
2022/08/01 00:12:26;;;;;;;13.20;12.70;;;24.20;16.00;;;;;;6192122;23;20371;-83
2022/08/01 00:14:51;;;;;;;13.40;12.77;;;24.20;16.10;;;;;;6194491;23;20394;-83
2022/08/01 00:17:17;;;;;;;13.47;12.87;;;24.20;16.30;;;;;;6194340;23;20156;-83
2022/08/01 00:19:42;;;;;;;12.23;11.73;;;24.20;16.50;;;;;;6219003;23;20183;-83
2022/08/01 00:22:08;;;;;;;13.07;12.40;;;24.30;17.00;;;;;;6219055;23;20505;-82
2022/08/01 00:24:34;;;;;;;13.10;12.57;;;24.30;16.00;;;;;;6193375;23;20160;-83
2022/08/01 00:26:59;;;;;;;13.37;12.77;;;24.20;16.50;;;;;;6192512;23;20167;-82
2022/08/01 00:29:25;;;;;;;12.50;12.00;;;24.20;16.40;;;;;;6192747;23;20242;-82
2022/08/01 00:31:50;;;;;;;12.73;12.13;;;24.30;16.40;;;;;;6218937;23;20144;-82
2022/08/01 00:34:16;;;;;;;13.20;12.50;;;24.20;16.40;;;;;;6192506;23;20311;-82
2022/08/01 00:36:41;;;;;;;12.80;12.33;;;24.10;16.80;;;;;;6192378;23;20182;-83
2022/08/01 00:39:07;;;;;;;13.40;12.90;;;24.10;16.90;;;;;;6194207;23;20183;-82
2022/08/01 00:41:32;;;;;;;12.70;12.20;;;24.00;17.10;;;;;;6219731;23;20156;-82
2022/08/01 00:44:01;;;;;;;13.90;13.30;;;24.10;17.10;;;;;;6192838;23;20271;-82
2022/08/01 00:46:26;;;;;;;13.70;13.10;;;24.10;17.20;;;;;;6219713;23;20159;-82
2022/08/01 00:48:53;;;;;;;13.23;12.70;;;23.90;17.40;;;;;;6218072;23;20407;-82
2022/08/01 00:51:18;;;;;;;13.60;13.00;;;23.90;18.10;;;;;;6217546;23;20159;-81
2022/08/01 00:53:44;;;;;;;13.43;12.87;;;23.80;17.90;;;;;;6192348;23;20375;-81
2022/08/01 00:56:10;;;;;;;16.03;15.00;;;23.80;18.00;;;;;;6192334;23;20180;-82
2022/08/01 00:58:37;;;;;;;13.43;12.80;;;23.80;18.10;;;;;;6193181;23;20306;-83
2022/08/01 01:01:02;;;;;;;13.47;12.90;;;23.70;18.30;;;;;;6191277;23;20383;-83
2022/08/01 01:03:28;;;;;;;12.70;12.20;;;23.70;18.50;;;;;;6190926;23;20448;-83
2022/08/01 01:06:30;;;;;;;13.43;12.93;;;23.70;18.70;;;;;;6190884;23;20207;-83
2022/08/01 01:09:11;;;;;;;14.03;13.43;;;23.60;18.50;;;;;;6215668;23;20178;-83
2022/08/01 01:11:48;;;;;;;13.30;12.80;;;23.60;18.70;;;;;;6189779;23;20383;-83
2022/08/01 01:14:38;;;;;;;13.43;12.93;;;23.60;19.00;;;;;;6189960;23;20382;-83
2022/08/01 01:17:07;;;;;;;13.00;12.50;;;23.50;19.30;;;;;;6215141;23;20386;-82
2022/08/01 01:19:38;;;;;;;13.97;13.47;;;23.50;19.40;;;;;;6190634;23;20621;-83
2022/08/01 01:22:25;;;;;;;14.00;13.40;;;23.40;19.70;;;;;;6191129;23;20426;-83
2022/08/01 01:25:36;;;;;;;13.90;13.40;;;23.40;19.70;;;;;;6191177;23;20458;-83
2022/08/01 01:28:30;;;;;;;13.43;12.93;;;23.30;20.10;;;;;;6216669;23;20465;-83
2022/08/01 01:30:58;;;;;;;14.10;13.40;;;23.30;20.10;;;;;;6195067;23;20486;-83
2022/08/01 01:33:28;;;;;;;13.63;13.10;;;23.20;20.30;;;;;;6199961;23;20383;-83
2022/08/01 01:36:03;;;;;;;13.90;13.20;;;23.10;20.50;;;;;;6197729;23;20448;-83
2022/08/01 01:38:33;;;;;;;13.80;13.20;;;23.10;20.50;;;;;;6196536;23;20466;-83
2022/08/01 01:41:02;;;;;;;13.50;13.00;;;23.00;20.50;;;;;;6196356;23;20766;-83
2022/08/01 01:43:29;;;;;;;14.00;13.40;;;23.00;20.70;;;;;;6196883;23;20414;-83
2022/08/01 01:45:59;;;;;;;14.30;13.70;;;22.90;20.80;;;;;;6196764;23;20859;-83
2022/08/01 01:48:25;;;;;;;13.87;13.27;;;22.90;20.90;;;;;;6197688;23;20429;-83
2022/08/01 01:50:52;;;;;;;13.90;13.40;;;22.90;21.10;;;;;;6220704;23;20429;-83
2022/08/01 01:53:21;;;;;;;15.57;14.87;;;22.80;21.40;;;;;;6195886;23;20846;-83
2022/08/01 01:55:51;;;;;;;13.33;12.83;;;22.70;21.40;;;;;;6221497;23;20383;-82
2022/08/01 01:58:19;;;;;;;14.10;13.50;;;22.70;21.60;;;;;;6196304;23;20402;-82
2022/08/01 02:00:46;;;;;;;13.97;13.27;;;22.70;21.90;;;;;;6195797;23;20731;-83
2022/08/01 02:03:15;;;;;;;13.57;13.07;;;22.60;21.90;;;;;;6196211;23;20383;-82
2022/08/01 02:05:44;;;;;;;14.30;13.80;;;22.60;22.10;;;;;;6196809;23;20436;-83
2022/08/01 02:08:14;;;;;;;15.00;14.40;;;22.60;22.40;;;;;;6196469;23;20479;-82
2022/08/01 02:10:40;;;;;;;15.77;14.97;;;22.60;22.50;;;;;;6222810;23;20422;-83
2022/08/01 02:13:06;;;;;;;13.83;13.33;;;22.50;22.60;;;;;;6223466;23;20373;-83
2022/08/01 02:15:38;;;;;;;14.37;13.87;;;22.50;22.70;;;;;;6223518;23;20367;-83
2022/08/01 02:18:05;;;;;;;13.90;13.40;;;22.50;22.80;;;;;;6196647;23;20780;-82
2022/08/01 02:20:34;;;;;;;14.63;14.03;;;22.40;23.00;;;;;;6197092;23;20413;-81
2022/08/01 02:23:12;;;;;;;14.07;13.37;;;22.40;23.30;;;;;;6198449;23;20734;-83
2022/08/01 02:25:53;;;;;;;14.20;13.60;;;22.40;23.30;;;;;;6223004;23;20453;-83
2022/08/01 02:28:28;;;;;;;14.43;13.87;;;22.40;23.30;;;;;;6198559;23;20438;-83
2022/08/01 02:31:00;;;;;;;14.57;13.97;;;22.40;23.30;;;;;;6198666;23;20422;-83
2022/08/01 02:33:37;;;;;;;15.20;14.70;;;22.30;23.20;;;;;;6199596;23;20410;-82
2022/08/01 02:36:05;;;;;;;15.80;15.10;;;22.30;23.60;;;;;;6198957;23;20371;-81
2022/08/01 02:38:34;;;;;;;15.87;15.27;;;22.30;23.60;;;;;;6225807;23;20732;-82
2022/08/01 02:41:08;;;;;;;14.80;14.10;;;22.30;23.80;;;;;;6226546;23;20398;-82
2022/08/01 02:43:50;;;;;;;14.70;14.10;;;22.20;24.10;;;;;;6200919;23;20402;-83
2022/08/01 02:46:38;;;;;;;14.50;13.90;;;22.20;24.10;;;;;;6200180;23;20399;-82
2022/08/01 02:49:07;;;;;;;14.40;13.83;;;22.30;24.30;;;;;;6201306;23;20431;-83
2022/08/01 02:51:38;;;;;;;14.90;14.30;;;22.30;24.30;;;;;;6201968;23;20379;-83
2022/08/01 02:54:07;;;;;;;14.53;14.00;;;22.20;24.60;;;;;;6227986;23;20384;-83
2022/08/01 02:56:35;;;;;;;14.63;14.13;;;22.20;24.50;;;;;;6205066;23;20396;-82
2022/08/01 02:59:12;;;;;;;14.80;14.20;;;22.20;24.80;;;;;;6232439;23;20420;-83
2022/08/01 03:01:38;;;;;;;14.67;14.17;;;22.10;25.20;;;;;;6230222;23;20359;-82
2022/08/01 03:04:06;;;;;;;16.07;15.47;;;22.10;25.30;;;;;;6199258;23;20930;-82
2022/08/01 03:06:34;;;;;;;15.57;14.97;;;22.10;25.20;;;;;;6196092;23;20398;-82
2022/08/01 03:09:02;;;;;;;15.50;14.90;;;22.00;25.50;;;;;;6197135;23;20879;-82
2022/08/01 03:11:30;;;;;;;15.37;14.77;;;22.00;25.70;;;;;;6197127;23;20379;-81
2022/08/01 03:14:50;;;;;;;15.30;14.70;;;22.10;25.70;;;;;;6222015;23;20379;-82
2022/08/01 03:17:18;;;;;;;15.73;15.13;;;22.00;25.90;;;;;;6164213;23;20912;-82
2022/08/01 03:19:46;;;;;;;14.73;14.23;;;21.90;26.10;;;;;;6196302;23;20485;-82
2022/08/01 03:22:27;;;;;;;15.23;14.57;;;21.90;26.20;;;;;;6196152;23;20387;-82
2022/08/01 03:24:56;;;;;;;16.10;15.50;;;22.00;26.20;;;;;;6196801;23;20885;-82
2022/08/01 03:27:24;;;;;;;15.50;14.90;;;21.90;26.30;;;;;;6221865;23;20386;-82
2022/08/01 03:30:05;;;;;;;15.57;14.97;;;21.90;26.30;;;;;;6197235;23;20755;-82
2022/08/01 03:32:31;;;;;;;15.70;15.10;;;21.80;26.40;;;;;;6196360;23;20368;-82
2022/08/01 03:34:57;;;;;;;15.77;15.23;;;21.80;26.70;;;;;;6197623;23;20387;-82
2022/08/01 03:37:29;;;;;;;15.93;15.33;;;21.70;26.50;;;;;;6198019;23;20235;-83
2022/08/01 03:40:04;;;;;;;15.87;15.20;;;21.70;26.90;;;;;;6197641;23;20394;-81
2022/08/01 03:42:41;;;;;;;15.97;15.37;;;21.70;26.80;;;;;;6224384;23;20363;-81
2022/08/01 03:45:15;;;;;;;17.03;16.33;;;21.70;26.90;;;;;;6198036;23;20425;-82
2022/08/01 03:47:43;;;;;;;16.97;16.37;;;21.70;27.00;;;;;;6225053;23;20727;-82
2022/08/01 03:50:11;;;;;;;16.23;15.30;;;21.60;26.90;;;;;;6197214;23;20822;-82
2022/08/01 03:52:39;;;;;;;18.00;17.30;;;21.60;26.90;;;;;;6222352;23;20773;-82
2022/08/01 03:55:09;;;;;;;17.13;16.43;;;21.60;27.00;;;;;;6222941;23;20714;-82
2022/08/01 03:57:35;;;;;;;16.00;15.40;;;21.60;27.10;;;;;;6196610;23;20409;-82
2022/08/01 04:00:05;;;;;;;15.40;14.80;;;21.60;27.10;;;;;;6223713;23;20379;-83
2022/08/01 04:02:31;;;;;;;18.57;17.17;;;21.50;27.20;;;;;;6197363;23;20680;-83
2022/08/01 04:04:58;;;;;;;15.73;15.10;;;21.60;27.80;;;;;;6197665;23;20395;-83
2022/08/01 04:07:26;;;;;;;16.70;15.77;;;21.60;27.30;;;;;;6197228;23;20242;-83
2022/08/01 04:09:52;;;;;;;16.17;15.47;;;21.60;27.40;;;;;;6197327;23;20813;-83
2022/08/01 04:12:18;;;;;;;16.13;15.50;;;21.60;27.40;;;;;;6196491;23;20525;-83
2022/08/01 04:14:44;;;;;;;17.60;16.70;;;21.70;27.30;;;;;;6224259;23;20492;-83
2022/08/01 04:17:09;;;;;;;17.60;16.90;;;21.70;27.10;;;;;;6196928;23;20410;-83
2022/08/01 04:19:35;;;;;;;17.43;16.73;;;21.90;27.10;;;;;;6222443;23;20159;-83
2022/08/01 04:22:02;;;;;;;17.77;17.17;;;21.90;27.10;;;;;;6197534;23;20155;-83
2022/08/01 04:24:30;;;;;;;17.90;17.20;;;21.80;27.20;;;;;;6223106;23;20152;-83
2022/08/01 04:26:59;;;;;;;17.73;17.03;;;21.70;27.40;;;;;;6224785;23;20703;-83
2022/08/01 04:29:26;;;;;;;17.37;16.60;;;21.80;27.50;;;;;;6196444;23;20435;-83
2022/08/01 04:31:54;;;;;;;15.27;14.57;;;21.80;27.50;;;;;;6219823;23;20386;-84
2022/08/01 04:34:23;;;;;;;16.27;15.50;;;21.90;27.40;;;;;;6194751;23;20866;-83
2022/08/01 04:36:51;;;;;;;16.53;15.93;;;21.80;27.50;;;;;;6196806;23;20405;-83
2022/08/01 04:39:19;;;;;;;17.03;16.17;;;21.90;27.70;;;;;;6240185;23;20402;-82
2022/08/01 04:41:46;;;;;;;16.93;16.23;;;21.80;27.70;;;;;;6241065;23;20376;-82
2022/08/01 04:44:13;;;;;;;18.10;16.87;;;21.90;28.00;;;;;;6214117;23;20575;-81
2022/08/01 04:46:40;;;;;;;16.37;15.77;;;21.80;28.00;;;;;;6241756;22;20403;-81
2022/08/01 04:49:08;;;;;;;17.23;16.53;;;21.80;28.30;;;;;;6213210;23;20435;-81
2022/08/01 04:51:36;;;;;;;17.30;16.50;;;21.80;28.20;;;;;;6239569;22;20419;-82
2022/08/01 04:54:02;;;;;;;18.57;17.63;;;21.80;28.80;;;;;;6240283;23;20431;-82
2022/08/01 04:56:28;;;;;;;17.70;17.00;;;21.90;28.40;;;;;;6240201;23;20391;-81
2022/08/01 05:01:37;;;;;;;16.97;16.33;;;22.00;28.30;;;;;;6236518;23;20143;-83
2022/08/01 05:04:03;;;;;;;16.63;16.03;;;22.00;28.30;;;;;;6231001;23;20712;-82
2022/08/01 05:06:31;;;;;;;16.80;16.10;;;22.00;28.40;;;;;;6196568;23;20175;-82
2022/08/01 05:08:57;;;;;;;17.10;16.30;;;22.10;28.30;;;;;;6222362;23;20232;-82
2022/08/01 05:11:22;;;;;;;17.00;16.30;;;22.20;28.30;;;;;;6220907;23;20429;-83
2022/08/01 05:13:48;;;;;;;15.80;15.10;;;22.10;28.50;;;;;;6195765;23;20156;-84
2022/08/01 05:16:14;;;;;;;16.30;15.70;;;22.20;28.40;;;;;;6222392;23;20588;-84
2022/08/01 05:18:39;;;;;;;16.80;16.13;;;22.30;28.10;;;;;;6221454;23;20175;-82
2022/08/01 05:21:05;;;;;;;17.60;16.50;;;22.30;28.20;;;;;;6194781;23;20159;-83
2022/08/01 05:23:30;;;;;;;17.03;16.33;;;22.30;28.20;;;;;;6221020;23;20148;-84
2022/08/01 05:25:56;;;;;;;16.23;15.63;;;22.30;28.20;;;;;;6221382;23;20153;-82
2022/08/01 05:28:22;;;;;;;16.80;16.20;;;22.50;27.90;;;;;;6194992;23;20203;-82
2022/08/01 05:30:47;;;;;;;18.37;17.67;;;22.50;28.00;;;;;;6194384;23;20180;-83
2022/08/01 05:33:13;;;;;;;17.73;17.03;;;22.50;28.20;;;;;;6194816;23;20239;-83
2022/08/01 05:35:38;;;;;;;17.87;17.17;;;22.40;28.30;;;;;;6194957;23;20156;-83
2022/08/01 05:38:04;;;;;;;18.03;17.20;;;22.40;28.50;;;;;;6221029;23;20172;-82
2022/08/01 05:40:29;;;;;;;17.40;16.70;;;22.40;28.40;;;;;;6220974;23;20473;-83
2022/08/01 05:42:55;;;;;;;16.00;15.40;;;22.50;28.50;;;;;;6221686;23;20223;-82
2022/08/01 05:45:21;;;;;;;16.70;16.00;;;22.50;28.60;;;;;;6220090;23;20156;-83
2022/08/01 05:47:46;;;;;;;15.40;14.90;;;22.50;28.50;;;;;;6196426;23;20176;-84
2022/08/01 05:50:12;;;;;;;17.10;16.40;;;22.60;28.60;;;;;;6223094;23;20204;-84
2022/08/01 05:52:38;;;;;;;16.63;15.80;;;22.60;28.60;;;;;;6223389;23;20171;-85
2022/08/01 05:55:04;;;;;;;15.43;14.83;;;22.70;28.50;;;;;;6223233;23;20165;-84
2022/08/01 05:57:30;;;;;;;16.73;16.03;;;22.70;28.40;;;;;;6223351;23;20187;-85
2022/08/01 05:59:55;;;;;;;16.07;15.40;;;22.70;28.50;;;;;;6222965;23;20375;-84
2022/08/01 06:02:21;;;;;;;17.73;16.70;;;22.80;28.20;;;;;;6221850;23;20471;-83
2022/08/01 06:04:47;;;;;;;16.40;15.80;;;22.80;28.20;;;;;;6215859;23;20287;-84
2022/08/01 06:07:12;;;;;;;16.30;15.80;;;22.80;28.40;;;;;;6196393;23;20722;-83
2022/08/01 06:09:38;;;;;;;17.23;16.63;;;22.80;28.50;;;;;;6197446;23;20207;-83
2022/08/01 06:12:07;;;;;;;18.47;17.67;;;22.90;28.40;;;;;;6197575;23;20382;-83
2022/08/01 06:14:33;;;;;;;18.00;17.20;;;23.00;28.30;;;;;;6221936;23;20636;-84
2022/08/01 06:16:59;;;;;;;18.27;17.37;;;22.90;28.30;;;;;;6220872;23;20380;-82
2022/08/01 06:19:26;;;;;;;17.83;17.13;;;23.00;28.30;;;;;;6194074;23;20180;-83
2022/08/01 06:21:51;;;;;;;17.13;16.50;;;22.90;28.50;;;;;;6192942;23;20159;-81
2022/08/01 06:27:03;;;;;;;15.83;15.13;;;23.10;28.30;;;;;;6220952;23;20156;-82
2022/08/01 06:29:31;;;;;;;16.50;15.80;;;23.20;28.00;;;;;;6221036;23;20423;-82
2022/08/01 06:32:01;;;;;;;15.70;15.10;;;23.00;28.50;;;;;;6192313;23;20296;-84
2022/08/01 06:34:27;;;;;;;16.83;16.23;;;23.00;28.70;;;;;;6189417;23;20426;-84
2022/08/01 15:10:23;;;;;;;14.33;13.67;;;27.20;17.60;;;;;;6234427;22;20469;-70
2022/08/01 16:59:26;;;;;;;12.50;12.10;;;26.70;17.30;;;;;;6307623;22;20439;-71
2022/08/01 17:01:52;;;;;;;11.90;11.40;;;26.70;17.40;;;;;;6279754;22;20533;-71
2022/08/01 17:04:18;;;;;;;12.43;12.03;;;26.70;17.30;;;;;;6279987;22;20479;-70
2022/08/01 17:06:44;;;;;;;11.80;11.30;;;26.60;17.40;;;;;;6280130;22;20529;-70
2022/08/01 17:09:11;;;;;;;12.00;11.50;;;26.50;17.70;;;;;;6279682;22;20232;-70
2022/08/01 17:11:37;;;;;;;12.37;11.83;;;26.50;17.40;;;;;;6278219;22;20368;-70
2022/08/01 17:14:03;;;;;;;12.40;12.00;;;26.50;17.60;;;;;;6280039;22;20463;-69
2022/08/01 17:16:29;;;;;;;12.00;11.60;;;26.50;17.90;;;;;;6280483;22;20160;-70
2022/08/01 17:18:56;;;;;;;12.47;12.07;;;26.40;17.90;;;;;;6279675;22;20475;-72
2022/08/01 17:21:22;;;;;;;13.83;12.60;;;26.40;18.20;;;;;;6279868;22;20161;-73
2022/08/01 17:23:48;;;;;;;12.10;11.70;;;26.40;18.10;;;;;;6279114;22;20884;-73
2022/08/01 17:26:13;;;;;;;12.70;12.17;;;26.40;18.20;;;;;;6279849;22;20165;-73
2022/08/01 17:28:39;;;;;;;11.70;11.30;;;26.40;18.40;;;;;;6278246;22;20490;-72
2022/08/01 17:31:04;;;;;;;12.37;11.70;;;26.30;18.30;;;;;;6279269;22;20154;-73
2022/08/01 17:33:30;;;;;;;12.27;11.87;;;26.30;18.60;;;;;;6279474;22;20154;-72
2022/08/01 17:35:56;;;;;;;12.30;11.90;;;26.30;18.60;;;;;;6279880;22;20150;-72
2022/08/01 17:38:21;;;;;;;13.40;12.90;;;26.30;18.60;;;;;;6279940;22;20534;-72
2022/08/01 17:40:47;;;;;;;13.43;13.03;;;26.30;18.50;;;;;;6280365;22;20154;-72
2022/08/01 17:43:13;;;;;;;13.00;12.60;;;26.20;18.40;;;;;;6279910;22;20154;-72
2022/08/01 17:45:42;;;;;;;12.87;12.47;;;26.20;18.50;;;;;;6280011;22;20159;-72
2022/08/01 17:48:14;;;;;;;13.27;12.77;;;26.20;18.50;;;;;;6279699;22;20178;-72
2022/08/01 17:50:43;;;;;;;11.97;11.57;;;26.20;18.60;;;;;;6279997;22;20376;-72
2022/08/01 17:53:10;;;;;;;11.70;11.30;;;26.10;18.70;;;;;;6279666;22;20387;-72
2022/08/01 17:55:36;;;;;;;11.80;11.40;;;26.10;18.80;;;;;;6280012;22;20463;-62
2022/08/01 17:58:04;;;;;;;12.00;11.60;;;26.10;18.80;;;;;;6279817;22;20404;-61
2022/08/01 18:00:29;;;;;;;12.47;12.07;;;26.10;19.10;;;;;;6279277;22;20720;-62
2022/08/01 18:02:55;;;;;;;13.73;12.70;;;26.10;19.00;;;;;;6279836;22;20388;-62
2022/08/01 18:05:21;;;;;;;13.20;12.70;;;26.10;19.10;;;;;;6279549;22;20412;-63
2022/08/01 18:07:46;;;;;;;13.97;13.47;;;26.10;19.30;;;;;;6279482;22;20178;-62
2022/08/01 18:10:12;;;;;;;13.10;12.60;;;26.00;19.20;;;;;;6279260;22;20203;-62
2022/08/01 18:12:38;;;;;;;13.37;12.87;;;26.00;19.40;;;;;;6279642;22;20403;-63
2022/08/01 18:15:04;;;;;;;13.77;13.27;;;26.00;20.00;;;;;;6279468;22;20229;-63
2022/08/01 18:17:30;;;;;;;14.50;13.70;;;25.90;19.40;;;;;;6279416;22;20150;-62
2022/08/01 18:19:56;;;;;;;13.03;12.57;;;25.90;19.60;;;;;;6279402;22;20373;-63
2022/08/01 18:22:22;;;;;;;13.20;12.70;;;25.90;19.70;;;;;;6279616;22;20373;-63
2022/08/01 18:24:48;;;;;;;13.57;13.07;;;25.80;19.80;;;;;;6307127;22;20443;-62
2022/08/01 18:27:14;;;;;;;12.87;12.47;;;25.80;19.90;;;;;;6279373;22;20203;-62
2022/08/01 18:29:39;;;;;;;12.80;12.40;;;25.80;20.00;;;;;;6279400;22;20272;-63
2022/08/01 18:32:05;;;;;;;12.93;12.53;;;25.80;20.10;;;;;;6278740;22;20158;-63
2022/08/01 18:34:31;;;;;;;12.60;12.20;;;25.80;20.20;;;;;;6279411;22;20150;-62
2022/08/01 18:36:57;;;;;;;12.63;12.23;;;25.70;20.30;;;;;;6254337;22;20655;-62
2022/08/01 18:39:22;;;;;;;13.30;12.80;;;25.70;20.30;;;;;;6279180;22;20158;-62
2022/08/01 18:41:48;;;;;;;13.17;12.57;;;25.70;20.30;;;;;;6278912;22;20865;-62
2022/08/01 18:44:14;;;;;;;13.63;13.03;;;25.70;20.40;;;;;;6279114;22;20182;-63
2022/08/01 18:46:40;;;;;;;13.50;12.63;;;25.70;20.40;;;;;;6279216;22;20618;-63
2022/08/01 18:49:09;;;;;;;13.23;12.83;;;25.70;20.60;;;;;;6279264;22;20474;-62
2022/08/01 18:51:35;;;;;;;13.20;12.80;;;25.70;20.60;;;;;;6278838;22;20381;-62
2022/08/01 18:54:00;;;;;;;12.60;12.20;;;25.60;20.80;;;;;;6279013;22;20783;-62
2022/08/01 18:56:26;;;;;;;13.23;12.70;;;25.60;20.70;;;;;;6278807;22;20204;-63
2022/08/01 18:58:53;;;;;;;13.70;13.10;;;25.60;20.80;;;;;;6279544;22;20177;-67
2022/08/01 19:01:19;;;;;;;12.73;12.33;;;25.60;21.00;;;;;;6278979;22;20158;-62
2022/08/01 19:03:45;;;;;;;12.67;12.27;;;25.60;21.10;;;;;;6278825;22;20449;-62
2022/08/01 19:06:11;;;;;;;12.97;12.57;;;25.60;21.00;;;;;;6278773;22;20510;-62
2022/08/01 19:08:37;;;;;;;12.77;12.37;;;25.60;21.10;;;;;;6279398;22;20450;-62
2022/08/01 19:11:03;;;;;;;14.13;13.37;;;25.60;21.10;;;;;;6279200;22;20577;-62
2022/08/01 19:13:30;;;;;;;13.70;13.20;;;25.50;21.40;;;;;;6279339;22;20146;-62
2022/08/01 19:15:56;;;;;;;13.27;12.77;;;25.50;21.80;;;;;;6279205;22;20381;-62
2022/08/01 19:18:23;;;;;;;13.43;12.83;;;25.50;21.90;;;;;;6279307;22;20376;-62
2022/08/01 19:20:49;;;;;;;13.93;13.40;;;25.50;22.20;;;;;;6278956;22;20467;-63
2022/08/01 19:26:03;;;;;;;13.00;12.60;;;25.40;23.40;;;;;;6307194;22;20184;-63
2022/08/01 19:28:37;;;;;;;13.40;13.00;;;25.40;23.20;;;;;;6279021;22;20419;-63
2022/08/01 19:31:03;;;;;;;13.30;12.80;;;25.40;23.10;;;;;;6278945;22;20377;-62
2022/08/01 19:33:32;;;;;;;12.87;12.47;;;25.40;23.60;;;;;;6279019;22;20383;-62
2022/08/01 19:35:58;;;;;;;12.77;12.27;;;25.30;23.30;;;;;;6279200;22;20372;-63
2022/08/01 19:38:26;;;;;;;12.40;12.00;;;25.30;22.90;;;;;;6279062;22;20385;-60
2022/08/01 19:40:52;;;;;;;12.23;11.87;;;25.30;23.40;;;;;;6279162;22;20380;-61
2022/08/01 19:43:20;;;;;;;13.43;12.83;;;25.30;23.60;;;;;;6278990;22;20801;-61
2022/08/01 19:45:49;;;;;;;13.40;12.90;;;25.30;23.60;;;;;;6279023;22;20836;-62
2022/08/01 19:48:15;;;;;;;14.20;13.50;;;25.20;25.20;;;;;;6278986;22;20416;-61
2022/08/01 19:50:42;;;;;;;13.93;13.43;;;25.00;25.60;;;;;;6278993;22;20388;-62
2022/08/01 19:53:12;;;;;;;12.93;12.53;;;24.90;24.90;;;;;;6278952;22;20602;-61
2022/08/01 19:55:40;;;;;;;13.83;13.33;;;24.90;24.00;;;;;;6279190;22;20694;-62
2022/08/01 19:58:07;;;;;;;14.37;13.77;;;25.00;23.40;;;;;;6278969;22;20459;-62
2022/08/01 20:00:37;;;;;;;14.37;13.77;;;24.80;27.90;;;;;;6278715;22;20446;-61
2022/08/01 20:03:03;;;;;;;14.77;13.97;;;24.60;30.10;;;;;;6279181;22;20415;-61
2022/08/01 20:05:29;;;;;;;14.90;14.30;;;24.60;29.80;;;;;;6279040;22;20376;-61
2022/08/01 20:07:55;;;;;;;14.60;14.10;;;24.50;30.20;;;;;;6279091;22;20520;-62
2022/08/01 20:10:20;;;;;;;14.33;13.80;;;24.30;30.00;;;;;;6278544;22;20150;-62
2022/08/01 20:12:47;;;;;;;14.90;14.40;;;24.30;33.70;;;;;;6279188;22;20439;-62
2022/08/01 20:15:14;;;;;;;16.57;15.87;;;23.70;34.90;;;;;;6279054;22;20154;-62
2022/08/01 20:17:40;;;;;;;16.10;15.40;;;23.50;40.10;;;;;;6279183;22;20779;-62
2022/08/01 20:20:06;;;;;;;17.03;16.33;;;23.00;39.50;;;;;;6278651;22;20380;-61
2022/08/01 20:22:34;;;;;;;17.70;16.90;;;22.80;41.70;;;;;;6279008;22;20601;-61
2022/08/01 20:25:01;;;;;;;17.90;17.20;;;22.70;42.70;;;;;;6278644;22;20408;-62
2022/08/01 20:27:29;;;;;;;18.13;17.43;;;22.70;42.70;;;;;;6278851;22;20379;-62
2022/08/01 20:29:59;;;;;;;17.63;16.93;;;22.70;42.70;;;;;;6278604;22;20384;-62
2022/08/01 20:32:32;;;;;;;18.23;17.23;;;22.70;42.90;;;;;;6278854;22;20380;-62
2022/08/01 20:34:59;;;;;;;17.73;17.00;;;22.70;43.30;;;;;;6278566;22;20443;-62
2022/08/01 20:37:25;;;;;;;18.47;17.77;;;22.60;42.60;;;;;;6278793;22;20862;-62
2022/08/01 20:39:56;;;;;;;18.10;17.33;;;22.60;42.90;;;;;;6278890;22;20377;-62
2022/08/01 20:42:23;;;;;;;17.80;17.10;;;22.70;42.40;;;;;;6278991;22;20376;-61
2022/08/01 20:44:50;;;;;;;17.13;16.43;;;22.60;42.60;;;;;;6278995;22;20373;-69
2022/08/01 20:47:16;;;;;;;16.33;15.73;;;22.60;42.30;;;;;;6278847;22;20836;-69
2022/08/01 20:49:42;;;;;;;16.70;16.10;;;22.70;42.70;;;;;;6276590;22;20419;-70
2022/08/01 20:52:08;;;;;;;18.40;17.20;;;22.80;42.10;;;;;;6278149;22;20157;-70
2022/08/01 20:54:34;;;;;;;17.23;16.50;;;22.70;42.00;;;;;;6278808;22;20376;-70
2022/08/01 20:57:06;;;;;;;18.40;17.70;;;22.80;41.50;;;;;;6280043;22;20146;-70
2022/08/01 20:59:34;;;;;;;17.87;17.07;;;23.00;40.80;;;;;;6280395;22;20586;-70
2022/08/01 21:02:15;;;;;;;17.73;16.73;;;23.00;40.30;;;;;;6279866;22;20377;-70
2022/08/01 21:05:01;;;;;;;16.67;16.03;;;22.80;40.80;;;;;;6280121;22;20700;-70
2022/08/01 21:07:46;;;;;;;17.47;16.40;;;22.80;41.50;;;;;;6280075;22;20733;-70
2022/08/01 21:10:16;;;;;;;18.37;17.57;;;22.70;41.60;;;;;;6280470;22;20377;-70
2022/08/01 21:13:05;;;;;;;18.27;17.47;;;22.70;42.20;;;;;;6280027;22;20434;-70
2022/08/01 21:15:38;;;;;;;18.10;17.40;;;22.80;42.50;;;;;;6280639;22;20377;-70
2022/08/01 21:18:32;;;;;;;18.93;18.07;;;22.90;42.30;;;;;;6280033;22;20376;-70
2022/08/01 21:21:00;;;;;;;17.93;17.20;;;23.00;41.10;;;;;;6280100;22;20376;-71
2022/08/01 21:23:44;;;;;;;17.50;16.80;;;23.00;40.80;;;;;;6279964;22;21092;-70
2022/08/01 21:26:12;;;;;;;16.80;16.10;;;23.00;40.60;;;;;;6280099;22;20714;-71
2022/08/01 21:28:39;;;;;;;17.50;16.80;;;22.90;41.40;;;;;;6280205;22;20413;-71
2022/08/01 21:31:07;;;;;;;17.47;16.83;;;22.70;42.70;;;;;;6279989;22;20380;-71
2022/08/01 21:33:33;;;;;;;18.37;17.50;;;22.80;42.60;;;;;;6307584;22;20832;-71
2022/08/01 21:35:59;;;;;;;17.03;16.43;;;22.70;42.70;;;;;;6280415;22;20384;-71
2022/08/01 21:38:26;;;;;;;17.77;16.97;;;22.70;42.70;;;;;;6280347;22;20376;-72
2022/08/01 21:40:53;;;;;;;18.20;17.50;;;22.60;43.60;;;;;;6279525;22;20419;-72
2022/08/01 21:43:20;;;;;;;18.07;17.27;;;22.40;44.60;;;;;;6280268;22;20776;-72
2022/08/01 21:45:47;;;;;;;17.87;17.27;;;22.30;44.90;;;;;;6280063;22;20861;-71
2022/08/01 21:48:14;;;;;;;18.13;17.43;;;22.30;44.80;;;;;;6279724;22;20500;-71
2022/08/01 21:50:58;;;;;;;17.90;17.20;;;22.40;46.70;;;;;;6279977;22;20373;-71
2022/08/01 21:53:47;;;;;;;18.10;17.50;;;22.30;47.50;;;;;;6280616;22;20387;-71
2022/08/01 21:56:36;;;;;;;19.40;18.40;;;22.10;49.20;;;;;;6279721;22;20412;-62
2022/08/01 21:59:31;;;;;;;17.90;17.10;;;22.20;47.90;;;;;;6280146;22;20404;-62
2022/08/01 22:02:04;;;;;;;18.60;17.80;;;22.10;50.10;;;;;;6279607;22;20373;-62
2022/08/01 22:04:41;;;;;;;18.73;17.93;;;22.00;48.20;;;;;;6279852;22;20380;-62
2022/08/01 22:07:11;;;;;;;18.90;18.20;;;22.00;47.80;;;;;;6279889;22;20379;-71
2022/08/01 22:09:44;;;;;;;19.23;18.50;;;21.90;47.90;;;;;;6279953;22;20412;-72
2022/08/01 22:12:11;;;;;;;18.93;18.23;;;22.00;50.10;;;;;;6279741;22;20933;-72
2022/08/01 22:14:43;;;;;;;18.37;17.70;;;21.80;48.60;;;;;;6280027;22;20397;-72
2022/08/01 22:17:18;;;;;;;18.70;18.00;;;21.80;48.60;;;;;;6279641;22;20369;-73
2022/08/01 22:19:44;;;;;;;19.67;18.77;;;21.80;48.10;;;;;;6280096;22;20427;-72
2022/08/01 22:22:11;;;;;;;19.40;18.60;;;21.70;48.10;;;;;;6279540;22;20376;-73
2022/08/01 22:24:37;;;;;;;19.80;18.90;;;21.80;48.70;;;;;;6279758;22;20486;-73
2022/08/01 22:27:05;;;;;;;18.97;18.27;;;21.80;47.00;;;;;;6279884;22;20407;-72
2022/08/01 22:29:31;;;;;;;18.40;17.70;;;21.80;47.00;;;;;;6279906;22;20415;-73
2022/08/01 22:31:58;;;;;;;18.20;17.60;;;21.70;46.50;;;;;;6279176;22;20369;-72
2022/08/01 22:34:26;;;;;;;18.13;17.43;;;21.50;47.40;;;;;;6279727;22;20387;-73
2022/08/01 22:36:52;;;;;;;18.20;17.50;;;21.50;47.30;;;;;;6279612;22;20420;-72
2022/08/01 22:39:18;;;;;;;18.83;18.13;;;21.50;47.60;;;;;;6279610;22;20387;-72
2022/08/01 22:41:48;;;;;;;18.30;17.70;;;21.80;45.80;;;;;;6279274;22;20384;-73
2022/08/01 22:44:22;;;;;;;19.20;18.13;;;21.80;45.90;;;;;;6279174;22;20154;-63
2022/08/01 22:46:59;;;;;;;18.97;18.07;;;21.60;46.40;;;;;;6279708;22;20369;-62
2022/08/01 22:49:40;;;;;;;18.20;17.50;;;21.60;46.00;;;;;;6278751;22;20416;-62
2022/08/01 22:52:25;;;;;;;18.57;17.87;;;21.60;45.20;;;;;;6279589;22;20368;-62
2022/08/01 22:55:01;;;;;;;19.00;18.30;;;21.80;44.20;;;;;;6279665;22;20734;-62
2022/08/01 22:57:39;;;;;;;18.20;17.60;;;21.70;44.40;;;;;;6279875;22;20440;-62
2022/08/01 23:00:07;;;;;;;18.40;17.70;;;21.60;44.20;;;;;;6278968;22;20448;-62
2022/08/01 23:02:39;;;;;;;18.87;18.07;;;21.40;45.50;;;;;;6278595;22;20953;-62
2022/08/01 23:05:07;;;;;;;17.73;17.13;;;21.00;47.40;;;;;;6278791;22;20377;-62